Oshawa, Canada
Current Conditions -  °F | °C
As of 9:00 AM on Friday 24 Oct 2014 (Local Time) from CYOO Reporting Station
Clear Clear  
Wind Chill: 44°   Ceiling: Unl
Heat Index: 46°   Visibility: 9mi
Dew Point: 43°   Wind: 5mph
Humidity: 87%   Direction: 340°NNW
Pressure: 30.02"   Gusts: NA
Location:  43.89°N, 78.86°W
Report Text: CYOO 241300Z AUTO 34004KT 9SM CLR 08/06 A3002 RMK SLP170
Loading
Personal Weather Stations






























Interactive Weather Map
Tropical Storm Tracking
New forecast layout! Learn more

10-Day Weather Forecast

Advertisements
Track Severe Weather on mobile